createdAt,value
2023-04-16T00:01:44.012Z,2.60
2023-04-16T00:04:18.508Z,2.35
2023-04-16T00:06:46.967Z,2.60
2023-04-16T00:09:14.973Z,2.47
2023-04-16T00:11:42.659Z,2.50
2023-04-16T00:14:10.252Z,2.33
2023-04-16T00:16:38.442Z,2.33
2023-04-16T00:19:06.200Z,2.63
2023-04-16T00:21:35.304Z,2.55
2023-04-16T00:24:02.847Z,3.03
2023-04-16T00:26:30.577Z,3.10
2023-04-16T00:28:58.276Z,2.80
2023-04-16T00:31:29.391Z,2.60
2023-04-16T00:33:57.217Z,2.92
2023-04-16T00:36:25.323Z,2.60
2023-04-16T00:38:54.344Z,2.63
2023-04-16T00:41:23.147Z,2.83
2023-04-16T00:43:50.964Z,2.43
2023-04-16T00:46:20.094Z,2.63
2023-04-16T00:48:47.912Z,2.63
2023-04-16T00:51:16.536Z,2.33
2023-04-16T00:53:44.424Z,2.92
2023-04-16T00:56:15.020Z,2.67
2023-04-16T00:58:42.716Z,3.20
2023-04-16T01:01:10.267Z,2.80
2023-04-16T01:03:39.782Z,2.63
2023-04-16T01:06:08.544Z,2.70
2023-04-16T01:08:36.235Z,2.73
2023-04-16T01:11:04.241Z,2.90
2023-04-16T01:13:33.759Z,2.95
2023-04-16T01:16:02.037Z,3.03
2023-04-16T01:18:30.187Z,3.10
2023-04-16T01:20:59.338Z,3.20
2023-04-16T01:23:26.878Z,3.10
2023-04-16T01:25:54.567Z,3.25
2023-04-16T01:28:22.369Z,2.53
2023-04-16T01:30:49.972Z,3.40
2023-04-16T01:33:19.097Z,2.93
2023-04-16T01:35:46.763Z,3.17
2023-04-16T01:38:16.057Z,3.35
2023-04-16T01:40:43.705Z,3.10
2023-04-16T01:43:11.415Z,3.22
2023-04-16T01:45:39.021Z,3.00
2023-04-16T01:48:06.913Z,3.10
2023-04-16T01:50:34.635Z,2.47
2023-04-16T01:53:05.321Z,2.85
2023-04-16T01:55:35.005Z,2.90
2023-04-16T01:58:02.699Z,3.03
2023-04-16T02:00:30.305Z,2.63
2023-04-16T02:02:58.119Z,2.63
2023-04-16T02:05:25.899Z,2.80
2023-04-16T02:07:54.441Z,3.22
2023-04-16T02:10:22.194Z,3.27
2023-04-16T02:12:51.589Z,3.22
2023-04-16T02:15:19.277Z,2.83
2023-04-16T02:17:48.745Z,3.00
2023-04-16T02:20:17.707Z,2.60
2023-04-16T02:22:45.397Z,2.90
2023-04-16T02:25:14.297Z,2.80
2023-04-16T02:27:42.540Z,3.40
2023-04-16T02:30:12.328Z,3.88
2023-04-16T02:32:40.128Z,3.75
2023-04-16T02:35:08.058Z,2.97
2023-04-16T02:37:35.926Z,2.90
2023-04-16T02:40:03.615Z,3.33
2023-04-16T02:42:31.243Z,2.65
2023-04-16T02:44:59.120Z,2.90
2023-04-16T02:47:28.204Z,3.00
2023-04-16T02:49:55.881Z,3.20
2023-04-16T02:52:23.426Z,3.05
2023-04-16T02:54:51.147Z,3.00
2023-04-16T02:57:18.846Z,3.47
2023-04-16T02:59:46.405Z,2.83
2023-04-16T03:02:14.317Z,3.20
2023-04-16T03:04:44.110Z,4.05
2023-04-16T03:07:12.959Z,3.38
2023-04-16T03:09:40.697Z,3.47
2023-04-16T03:12:08.443Z,3.23
2023-04-16T03:14:36.227Z,3.45
2023-04-16T03:17:03.845Z,3.33
2023-04-16T03:19:31.991Z,3.03
2023-04-16T03:22:00.914Z,2.95
2023-04-16T03:24:29.502Z,3.00
2023-04-16T03:26:58.329Z,2.60
2023-04-16T03:29:26.792Z,3.00
2023-04-16T03:31:54.408Z,2.85
2023-04-16T03:34:22.113Z,3.00
2023-04-16T03:36:53.622Z,3.00
2023-04-16T03:39:22.742Z,3.22
2023-04-16T03:41:50.389Z,2.75
2023-04-16T03:44:17.962Z,2.75
2023-04-16T03:46:45.756Z,3.38
2023-04-16T03:49:13.479Z,3.03
2023-04-16T03:51:41.149Z,3.10
2023-04-16T03:54:08.929Z,3.08
2023-04-16T03:56:38.496Z,3.10
2023-04-16T03:59:06.021Z,3.50
2023-04-16T04:01:33.635Z,2.67
2023-04-16T04:04:01.929Z,2.92
2023-04-16T04:06:29.688Z,3.53
2023-04-16T04:08:57.368Z,3.45
2023-04-16T04:11:25.015Z,3.33
2023-04-16T04:13:54.096Z,3.40
2023-04-16T04:16:21.880Z,3.05
2023-04-16T04:18:49.600Z,3.30
2023-04-16T04:21:17.405Z,3.50
2023-04-16T04:23:46.280Z,3.38
2023-04-16T04:26:14.000Z,3.27
2023-04-16T04:28:42.231Z,3.28
2023-04-16T04:31:11.384Z,3.30
2023-04-16T04:33:39.142Z,3.25
2023-04-16T04:36:07.186Z,3.38
2023-04-16T04:38:34.821Z,3.67
2023-04-16T04:41:02.626Z,3.13
2023-04-16T04:43:30.256Z,3.10
2023-04-16T04:45:57.947Z,3.40
2023-04-16T04:48:27.651Z,3.53
2023-04-16T04:50:55.293Z,3.50
2023-04-16T04:53:24.563Z,3.38
2023-04-16T04:55:54.231Z,3.70
2023-04-16T04:58:24.908Z,3.42
2023-04-16T05:00:52.709Z,3.20
2023-04-16T05:03:25.799Z,3.53
2023-04-16T05:05:54.824Z,3.47
2023-04-16T05:08:22.640Z,3.40
2023-04-16T05:10:50.524Z,3.63
2023-04-16T05:13:18.202Z,3.13
2023-04-16T05:15:46.119Z,3.60
2023-04-16T05:18:13.694Z,3.28
2023-04-16T05:20:41.390Z,2.70
2023-04-16T05:23:10.456Z,3.00
2023-04-16T05:25:38.016Z,2.75
2023-04-16T05:28:05.812Z,3.17
2023-04-16T05:30:33.436Z,2.97
2023-04-16T05:33:01.030Z,2.83
2023-04-16T05:35:28.837Z,3.13
2023-04-16T05:37:56.532Z,3.17
2023-04-16T05:40:25.438Z,3.40
2023-04-16T05:42:53.104Z,2.65
2023-04-16T05:45:28.696Z,3.80
2023-04-16T05:47:56.462Z,3.92
2023-04-16T05:50:24.147Z,3.13
2023-04-16T05:52:51.683Z,3.20
2023-04-16T05:55:19.459Z,3.00
2023-04-16T05:57:48.412Z,3.90
2023-04-16T06:00:16.536Z,3.30
2023-04-16T06:02:44.229Z,3.95
2023-04-16T06:05:12.017Z,3.47
2023-04-16T06:07:39.567Z,3.03
2023-04-16T06:10:07.724Z,3.30
2023-04-16T06:12:35.432Z,3.63
2023-04-16T06:15:04.750Z,3.20
2023-04-16T06:17:32.389Z,3.27
2023-04-16T06:20:00.370Z,3.20
2023-04-16T06:22:28.079Z,3.20
2023-04-16T06:24:55.808Z,2.10
2023-04-16T06:27:23.465Z,2.42
2023-04-16T06:29:51.265Z,1.63
2023-04-16T06:32:20.413Z,2.03
2023-04-16T06:34:48.060Z,1.70
2023-04-16T06:37:16.703Z,1.70
2023-04-16T06:39:44.385Z,2.20
2023-04-16T06:42:12.777Z,2.37
2023-04-16T06:44:40.437Z,1.52
2023-04-16T06:47:08.115Z,1.65
2023-04-16T06:49:37.172Z,1.70
2023-04-16T06:52:05.902Z,1.90
2023-04-16T06:54:33.849Z,1.90
2023-04-16T06:57:01.540Z,2.00
2023-04-16T06:59:29.065Z,1.85
2023-04-16T07:01:57.011Z,1.90
2023-04-16T07:04:24.820Z,2.08
2023-04-16T07:06:53.829Z,1.90
2023-04-16T07:09:21.509Z,2.00
2023-04-16T07:11:49.331Z,1.83
2023-04-16T07:14:17.294Z,1.58
2023-04-16T07:16:45.076Z,2.00
2023-04-16T07:19:12.749Z,2.10
2023-04-16T07:21:41.970Z,1.95
2023-04-16T07:24:11.096Z,2.17
2023-04-16T07:26:39.094Z,2.00
2023-04-16T07:29:07.519Z,2.08
2023-04-16T07:31:35.680Z,1.53
2023-04-16T07:34:03.495Z,1.67
2023-04-16T07:36:31.873Z,1.30
2023-04-16T07:39:00.569Z,1.63
2023-04-16T07:41:29.874Z,1.98
2023-04-16T07:43:57.706Z,1.60
2023-04-16T07:46:28.338Z,2.05
2023-04-16T07:49:01.042Z,2.03
2023-04-16T07:51:28.710Z,1.90
2023-04-16T07:53:56.257Z,1.77
2023-04-16T07:56:23.873Z,1.40
2023-04-16T07:58:52.909Z,1.80
2023-04-16T08:01:21.026Z,1.83
2023-04-16T08:03:49.050Z,1.90
2023-04-16T08:06:18.551Z,1.45
2023-04-16T08:08:46.107Z,1.50
2023-04-16T08:11:13.809Z,1.45
2023-04-16T08:13:41.582Z,1.70
2023-04-16T08:16:10.643Z,1.55
2023-04-16T08:18:38.410Z,1.70
2023-04-16T08:21:06.250Z,1.57
2023-04-16T08:23:33.780Z,2.20
2023-04-16T08:26:01.981Z,1.58
2023-04-16T08:28:29.681Z,1.67
2023-04-16T08:31:01.034Z,1.17
2023-04-16T08:33:30.402Z,1.13
2023-04-16T08:35:57.989Z,1.30
2023-04-16T08:38:26.391Z,1.45
2023-04-16T08:40:55.082Z,1.50
2023-04-16T08:43:24.712Z,1.42
2023-04-16T08:45:56.432Z,1.17
2023-04-16T08:48:24.494Z,1.30
2023-04-16T08:50:55.033Z,1.23
2023-04-16T08:53:27.378Z,1.30
2023-04-16T08:55:56.868Z,2.10
2023-04-16T08:58:24.889Z,1.50
2023-04-16T09:00:53.308Z,1.27
2023-04-16T09:03:22.619Z,1.67
2023-04-16T09:05:50.738Z,1.42
2023-04-16T09:08:23.042Z,1.20
2023-04-16T09:10:51.458Z,1.17
2023-04-16T09:13:20.565Z,0.70
2023-04-16T09:15:48.454Z,1.00
2023-04-16T09:18:16.323Z,1.00
2023-04-16T09:20:43.972Z,1.40
2023-04-16T09:23:11.726Z,0.77
2023-04-16T09:25:41.069Z,1.17
2023-04-16T09:28:08.814Z,1.10
2023-04-16T09:30:37.268Z,1.60
2023-04-16T09:33:16.454Z,1.17
2023-04-16T09:35:48.400Z,1.27
2023-04-16T09:38:16.787Z,1.15
2023-04-16T09:40:47.388Z,1.48
2023-04-16T09:43:17.404Z,0.80
2023-04-16T09:45:51.757Z,1.35
2023-04-16T09:48:29.654Z,1.20
2023-04-16T09:50:57.350Z,1.00
2023-04-16T09:53:27.272Z,0.88
2023-04-16T09:55:58.977Z,0.98
2023-04-16T09:58:26.553Z,1.20
2023-04-16T10:00:56.471Z,1.20
2023-04-16T10:03:30.592Z,0.85
2023-04-16T10:06:00.694Z,1.20
2023-04-16T10:08:28.967Z,1.40
2023-04-16T10:10:58.874Z,0.90
2023-04-16T10:13:27.903Z,0.87
2023-04-16T10:15:56.941Z,1.08
2023-04-16T10:18:25.059Z,0.63
2023-04-16T10:20:55.906Z,0.70
2023-04-16T10:23:23.869Z,0.95
2023-04-16T10:25:51.523Z,0.80
2023-04-16T10:28:21.345Z,0.68
2023-04-16T10:30:58.026Z,0.77
2023-04-16T10:33:26.735Z,1.33
2023-04-16T10:36:05.051Z,0.80
2023-04-16T10:38:35.436Z,0.90
2023-04-16T10:41:03.908Z,0.85
2023-04-16T10:43:33.949Z,0.73
2023-04-16T10:46:16.882Z,0.90
2023-04-16T10:48:49.845Z,0.77
2023-04-16T10:51:25.997Z,0.60
2023-04-16T10:53:54.943Z,0.75
2023-04-16T10:56:26.428Z,0.60
2023-04-16T10:58:56.918Z,0.82
2023-04-16T11:01:38.489Z,0.50
2023-04-16T11:04:21.191Z,1.13
2023-04-16T11:07:01.924Z,2.65
2023-04-16T11:09:46.767Z,0.93
2023-04-16T11:12:17.286Z,1.08
2023-04-16T11:14:48.008Z,0.60
2023-04-16T11:17:16.216Z,0.80
2023-04-16T11:19:44.149Z,0.60
2023-04-16T11:22:15.661Z,0.60
2023-04-16T11:24:43.404Z,0.93
2023-04-16T11:27:12.964Z,0.70
2023-04-16T11:29:40.728Z,1.63
2023-04-16T11:32:10.068Z,0.50
2023-04-16T11:34:44.815Z,0.55
2023-04-16T11:37:13.690Z,0.80
2023-04-16T11:39:51.554Z,0.80
2023-04-16T11:42:23.599Z,0.80
2023-04-16T11:44:55.567Z,0.95
2023-04-16T11:47:25.325Z,0.82
2023-04-16T11:49:53.008Z,0.90
2023-04-16T11:52:28.365Z,0.65
2023-04-16T11:54:56.139Z,0.90
2023-04-16T11:57:27.630Z,0.75
2023-04-16T12:00:02.563Z,0.80
2023-04-16T12:02:39.892Z,0.75
2023-04-16T12:05:08.765Z,0.65
2023-04-16T12:07:45.648Z,0.43
2023-04-16T12:10:13.432Z,0.68
2023-04-16T12:12:40.963Z,0.63
2023-04-16T12:15:08.932Z,1.20
2023-04-16T12:17:37.392Z,0.57
2023-04-16T12:20:11.099Z,0.60
2023-04-16T12:22:40.114Z,0.52
2023-04-16T12:25:08.309Z,0.50
2023-04-16T12:27:43.803Z,0.60
2023-04-16T12:30:12.092Z,0.60
2023-04-16T12:32:39.759Z,0.70
2023-04-16T12:35:10.151Z,0.70
2023-04-16T12:37:38.034Z,0.60
2023-04-16T12:40:06.360Z,0.85
2023-04-16T12:42:36.256Z,0.60
2023-04-16T12:45:04.322Z,0.60
2023-04-16T12:47:32.089Z,0.63
2023-04-16T12:50:00.307Z,0.50
2023-04-16T12:52:29.408Z,0.50
2023-04-16T12:54:57.005Z,0.70
2023-04-16T12:57:28.721Z,0.50
2023-04-16T12:59:57.123Z,0.80
2023-04-16T13:02:24.776Z,0.75
2023-04-16T13:04:53.860Z,0.55
2023-04-16T13:07:21.747Z,1.25
2023-04-16T13:09:50.678Z,2.30
2023-04-16T13:12:18.576Z,1.23
2023-04-16T13:14:48.404Z,0.95
2023-04-16T13:17:16.148Z,1.08
2023-04-16T13:19:43.942Z,0.90
2023-04-16T13:22:11.997Z,1.13
2023-04-16T13:24:39.552Z,1.20
2023-04-16T13:27:09.080Z,0.70
2023-04-16T13:29:38.003Z,0.50
2023-04-16T13:32:05.944Z,0.43
2023-04-16T13:34:34.065Z,0.60
2023-04-16T13:37:01.692Z,0.60
2023-04-16T13:39:29.229Z,0.90
2023-04-16T13:41:57.046Z,0.40
2023-04-16T13:44:25.975Z,0.60
2023-04-16T13:46:53.835Z,0.40
2023-04-16T13:49:23.564Z,0.55
2023-04-16T13:51:51.466Z,0.50
2023-04-16T13:54:24.908Z,0.50
2023-04-16T13:56:52.835Z,0.35
2023-04-16T13:59:20.713Z,0.57
2023-04-16T14:01:49.975Z,0.60
2023-04-16T14:04:17.881Z,0.40
2023-04-16T14:06:45.510Z,0.57
2023-04-16T14:09:13.276Z,0.60
2023-04-16T14:11:41.162Z,0.40
2023-04-16T14:14:08.737Z,0.63
2023-04-16T14:16:36.453Z,0.60
2023-04-16T14:19:05.855Z,0.55
2023-04-16T14:21:33.553Z,0.52
2023-04-16T14:24:01.520Z,0.50
2023-04-16T14:26:29.236Z,0.52
2023-04-16T14:28:56.820Z,0.47
2023-04-16T14:31:24.834Z,0.60
2023-04-16T14:33:52.596Z,0.70
2023-04-16T14:36:21.755Z,0.70
2023-04-16T14:38:49.554Z,0.68
2023-04-16T14:41:17.534Z,0.60
2023-04-16T14:43:45.465Z,0.40
2023-04-16T14:46:13.500Z,0.70
2023-04-16T14:48:41.219Z,0.60
2023-04-16T14:51:08.842Z,0.50
2023-04-16T14:53:44.628Z,0.40
2023-04-16T14:56:13.613Z,0.52
2023-04-16T14:58:42.878Z,0.70
2023-04-16T15:01:10.720Z,0.50
2023-04-16T15:03:38.426Z,0.60
2023-04-16T15:06:06.233Z,0.50
2023-04-16T15:08:34.040Z,0.50
2023-04-16T15:11:03.594Z,0.50
2023-04-16T15:13:35.396Z,0.53
2023-04-16T15:16:04.404Z,0.65
2023-04-16T15:18:33.041Z,0.50
2023-04-16T15:21:01.033Z,0.50
2023-04-16T15:23:28.811Z,0.63
2023-04-16T15:25:56.873Z,0.70
2023-04-16T15:28:26.361Z,0.70
2023-04-16T15:30:54.041Z,0.50
2023-04-16T15:33:21.917Z,0.73
2023-04-16T15:35:51.653Z,0.90
2023-04-16T15:38:21.093Z,0.50
2023-04-16T15:40:49.088Z,0.70
2023-04-16T15:43:17.367Z,0.50
2023-04-16T15:45:46.302Z,0.65
2023-04-16T15:48:14.934Z,0.75
2023-04-16T15:50:43.086Z,0.60
2023-04-16T15:53:10.735Z,0.77
2023-04-16T15:55:38.571Z,0.90
2023-04-16T15:58:06.234Z,0.80
2023-04-16T16:00:34.064Z,1.00
2023-04-16T16:03:03.274Z,1.03
2023-04-16T16:05:31.127Z,1.00
2023-04-16T16:07:59.515Z,1.08
2023-04-16T16:10:27.598Z,0.90
2023-04-16T16:12:57.416Z,1.05
2023-04-16T16:15:25.161Z,0.70
2023-04-16T16:17:53.708Z,0.63
2023-04-16T16:20:23.550Z,0.93
2023-04-16T16:22:53.029Z,0.65
2023-04-16T16:25:21.454Z,0.70
2023-04-16T16:27:49.053Z,1.00
2023-04-16T16:30:17.491Z,0.70
2023-04-16T16:32:46.253Z,0.68
2023-04-16T16:35:15.193Z,0.80
2023-04-16T16:37:44.262Z,0.70
2023-04-16T16:40:12.270Z,1.13
2023-04-16T16:42:39.887Z,0.80
2023-04-16T16:45:07.846Z,1.17
2023-04-16T16:47:35.464Z,0.80
2023-04-16T16:50:03.506Z,0.80
2023-04-16T16:52:31.212Z,0.80
2023-04-16T16:55:01.118Z,2.10
2023-04-16T16:57:28.848Z,1.20
2023-04-16T16:59:56.791Z,1.00
2023-04-16T17:02:25.690Z,1.08
2023-04-16T17:04:53.679Z,1.27
2023-04-16T17:07:21.153Z,0.50
2023-04-16T17:09:48.955Z,0.85
2023-04-16T17:12:18.281Z,0.98
2023-04-16T17:14:45.915Z,0.93
2023-04-16T17:17:13.464Z,0.97
2023-04-16T17:19:41.126Z,1.70
2023-04-16T17:22:08.967Z,1.17
2023-04-16T17:24:36.606Z,1.45
2023-04-16T17:27:04.551Z,1.50
2023-04-16T17:29:33.601Z,1.50
2023-04-16T17:32:01.505Z,1.30
2023-04-16T17:34:29.384Z,0.85
2023-04-16T17:36:56.871Z,1.02
2023-04-16T17:39:24.663Z,0.95
2023-04-16T17:41:54.892Z,1.13
2023-04-16T17:44:23.097Z,1.48
2023-04-16T17:46:52.192Z,1.00
2023-04-16T17:49:19.794Z,1.05
2023-04-16T17:51:47.344Z,1.20
2023-04-16T17:54:15.035Z,1.03
2023-04-16T17:56:43.336Z,1.30
2023-04-16T17:59:11.685Z,1.08
2023-04-16T18:01:39.385Z,1.27
2023-04-16T18:04:08.697Z,1.45
2023-04-16T18:06:36.495Z,1.40
2023-04-16T18:09:05.813Z,1.60
2023-04-16T18:11:33.494Z,1.33
2023-04-16T18:14:01.113Z,1.25
2023-04-16T18:16:30.582Z,1.35
2023-04-16T18:18:58.221Z,1.87
2023-04-16T18:21:27.552Z,1.35
2023-04-16T18:23:55.218Z,1.80
2023-04-16T18:26:23.187Z,0.98
2023-04-16T18:28:51.191Z,1.10
2023-04-16T18:31:21.072Z,1.40
2023-04-16T18:36:19.548Z,1.48
2023-04-16T18:39:00.051Z,1.02
2023-04-16T18:41:29.431Z,1.20
2023-04-16T18:43:58.591Z,1.30
2023-04-16T18:46:26.744Z,1.02
2023-04-16T18:48:54.563Z,1.17
2023-04-16T18:51:22.309Z,1.40
2023-04-16T18:53:51.304Z,1.58
2023-04-16T18:56:18.985Z,1.77
2023-04-16T18:58:47.796Z,1.27
2023-04-16T19:01:16.685Z,1.00
2023-04-16T19:03:44.510Z,1.35
2023-04-16T19:06:12.161Z,1.40
2023-04-16T19:08:39.728Z,1.30
2023-04-16T19:11:08.832Z,1.13
2023-04-16T19:13:36.531Z,1.50
2023-04-16T19:16:06.018Z,1.50
2023-04-16T19:18:33.615Z,1.25
2023-04-16T19:21:01.542Z,1.20
2023-04-16T19:23:29.135Z,1.45
2023-04-16T19:25:57.235Z,1.67
2023-04-16T19:28:27.317Z,2.03
2023-04-16T19:30:56.345Z,1.63
2023-04-16T19:33:24.187Z,1.70
2023-04-16T19:35:51.830Z,1.63
2023-04-16T19:38:19.522Z,1.60
2023-04-16T19:40:47.374Z,1.73
2023-04-16T19:43:15.870Z,1.80
2023-04-16T19:45:45.429Z,1.87
2023-04-16T19:48:13.374Z,1.63
2023-04-16T19:50:41.235Z,1.40
2023-04-16T19:53:09.227Z,2.25
2023-04-16T19:55:36.935Z,1.30
2023-04-16T19:58:06.824Z,1.73
2023-04-16T20:00:34.752Z,1.30
2023-04-16T20:03:03.737Z,0.77
2023-04-16T20:05:31.507Z,1.10
2023-04-16T20:07:59.346Z,1.00
2023-04-16T20:10:27.805Z,1.50
2023-04-16T20:12:55.370Z,1.50
2023-04-16T20:15:23.075Z,1.27
2023-04-16T20:17:50.820Z,1.38
2023-04-16T20:20:19.971Z,1.77
2023-04-16T20:22:47.603Z,1.17
2023-04-16T20:25:19.041Z,1.27
2023-04-16T20:27:47.097Z,1.00
2023-04-16T20:30:15.325Z,1.17
2023-04-16T20:32:42.941Z,1.10
2023-04-16T20:35:11.545Z,1.13
2023-04-16T20:37:42.359Z,0.80
2023-04-16T20:40:10.881Z,0.90
2023-04-16T20:42:38.709Z,1.30
2023-04-16T20:45:07.274Z,1.35
2023-04-16T20:47:35.555Z,1.17
2023-04-16T20:50:03.805Z,0.93
2023-04-16T20:52:31.433Z,1.30
2023-04-16T20:55:02.233Z,1.17
2023-04-16T20:57:31.977Z,1.20
2023-04-16T21:00:00.066Z,1.13
2023-04-16T21:02:28.544Z,1.55
2023-04-16T21:04:56.352Z,1.17
2023-04-16T21:07:24.882Z,1.25
2023-04-16T21:09:52.581Z,1.13
2023-04-16T21:12:21.640Z,1.43
2023-04-16T21:14:49.195Z,1.40
2023-04-16T21:17:17.496Z,1.08
2023-04-16T21:19:45.150Z,1.48
2023-04-16T21:22:12.811Z,2.03
2023-04-16T21:24:40.796Z,1.23
2023-04-16T21:27:08.880Z,1.13
2023-04-16T21:29:37.874Z,0.93
2023-04-16T21:32:05.878Z,1.38
2023-04-16T21:34:33.505Z,0.82
2023-04-16T21:37:01.219Z,1.10
2023-04-16T21:39:31.456Z,1.35
2023-04-16T21:41:59.041Z,1.30
2023-04-16T21:44:26.674Z,1.05
2023-04-16T21:46:55.708Z,1.65
2023-04-16T21:49:23.467Z,1.60
2023-04-16T21:51:59.200Z,1.35
2023-04-16T21:54:26.838Z,1.50
2023-04-16T21:56:54.434Z,1.42
2023-04-16T21:59:22.662Z,1.35
2023-04-16T22:01:50.377Z,1.70
2023-04-16T22:04:26.398Z,1.40
2023-04-16T22:06:56.404Z,1.25
2023-04-16T22:09:24.799Z,1.50
2023-04-16T22:11:52.824Z,1.17
2023-04-16T22:14:20.516Z,1.50
2023-04-16T22:16:49.885Z,1.92
2023-04-16T22:19:21.820Z,1.30
2023-04-16T22:21:50.113Z,1.30
2023-04-16T22:24:17.804Z,1.33
2023-04-16T22:26:46.324Z,1.37
2023-04-16T22:29:14.817Z,1.70
2023-04-16T22:31:42.839Z,2.00
2023-04-16T22:34:10.451Z,1.10
2023-04-16T22:36:39.483Z,1.77
2023-04-16T22:39:08.741Z,1.50
2023-04-16T22:41:36.906Z,1.50
2023-04-16T22:44:04.586Z,1.60
2023-04-16T22:46:32.472Z,1.95
2023-04-16T22:49:00.204Z,1.60
2023-04-16T22:51:27.767Z,1.70
2023-04-16T22:53:56.759Z,1.60
2023-04-16T22:56:28.700Z,1.80
2023-04-16T22:58:56.461Z,1.40
2023-04-16T23:01:24.042Z,1.25
2023-04-16T23:03:51.715Z,1.63
2023-04-16T23:06:19.451Z,1.10
2023-04-16T23:08:47.056Z,1.60
2023-04-16T23:11:16.418Z,1.88
2023-04-16T23:13:44.121Z,1.33
2023-04-16T23:16:11.771Z,1.10
2023-04-16T23:18:39.534Z,1.50
2023-04-16T23:21:07.537Z,1.42
2023-04-16T23:23:35.596Z,1.58
2023-04-16T23:26:03.338Z,1.63
2023-04-16T23:28:32.603Z,1.70
2023-04-16T23:31:00.341Z,1.73
2023-04-16T23:33:28.173Z,1.50
2023-04-16T23:35:55.952Z,1.92
2023-04-16T23:38:23.473Z,1.52
2023-04-16T23:40:55.223Z,1.33
2023-04-16T23:43:22.916Z,2.03
2023-04-16T23:45:51.856Z,2.08
2023-04-16T23:48:19.599Z,2.15
2023-04-16T23:50:47.192Z,1.70
2023-04-16T23:53:15.066Z,1.83
2023-04-16T23:55:43.998Z,1.63
2023-04-16T23:58:13.595Z,2.50
